Time;durP1;ratioP1;P1;durP2;ratioP2;P2;SDS_P1;SDS_P2;PMS_P1;PMS_P2;Temp;Humidity;BMP_temperature;BMP_pressure;BME280_temperature;BME280_humidity;BME280_pressure;Samples;Min_cycle;Max_cycle;Signal;HPM_P1;HPM_P2
2023/04/20 00:00:41;;;;;;;14.23;9.23;;;5.50;88.00;;;;;;5059165;28;21005;-61
2023/04/20 00:03:08;;;;;;;12.53;8.80;;;5.50;87.80;;;;;;5051927;28;21064;-60
2023/04/20 00:05:36;;;;;;;14.23;9.40;;;5.50;87.10;;;;;;5043719;28;20981;-61
2023/04/20 00:08:03;;;;;;;20.20;12.03;;;5.40;86.70;;;;;;5056691;28;20513;-61
2023/04/20 00:10:29;;;;;;;16.03;9.70;;;5.40;87.00;;;;;;5057745;28;20499;-61
2023/04/20 00:12:57;;;;;;;19.90;8.67;;;5.40;87.10;;;;;;5066295;28;20478;-61
2023/04/20 00:15:24;;;;;;;22.93;10.20;;;5.40;86.90;;;;;;5068135;28;20486;-61
2023/04/20 00:17:51;;;;;;;23.87;9.07;;;5.30;86.60;;;;;;5062041;28;21440;-61
2023/04/20 00:20:18;;;;;;;13.80;6.87;;;5.20;86.80;;;;;;5066860;28;20494;-61
2023/04/20 00:22:44;;;;;;;20.80;10.17;;;5.20;87.90;;;;;;5061373;28;21061;-61
2023/04/20 00:25:11;;;;;;;23.33;12.17;;;5.10;88.50;;;;;;5049003;28;20482;-61
2023/04/20 00:27:38;;;;;;;20.27;9.23;;;5.00;88.00;;;;;;5065117;28;20483;-61
2023/04/20 00:30:10;;;;;;;27.13;10.63;;;4.90;88.80;;;;;;5056560;28;20475;-61
2023/04/20 00:32:37;;;;;;;20.07;9.87;;;5.00;88.30;;;;;;5054722;28;20486;-61
2023/04/20 00:35:04;;;;;;;15.83;7.87;;;4.80;87.80;;;;;;5055353;28;20482;-61
2023/04/20 00:37:31;;;;;;;19.13;9.37;;;4.80;87.50;;;;;;5060120;28;21022;-61
2023/04/20 00:39:58;;;;;;;17.27;8.23;;;4.80;87.60;;;;;;5064025;28;21010;-61
2023/04/20 00:42:25;;;;;;;35.57;8.87;;;4.70;87.90;;;;;;5070701;28;20621;-60
2023/04/20 00:44:51;;;;;;;26.77;11.23;;;4.60;88.20;;;;;;5071513;28;20505;-61
2023/04/20 00:47:19;;;;;;;14.27;7.30;;;4.50;87.90;;;;;;5069545;28;20491;-61
2023/04/20 00:49:46;;;;;;;24.57;8.03;;;4.50;87.80;;;;;;5054054;28;20502;-61
2023/04/20 00:52:13;;;;;;;18.70;9.50;;;4.60;88.60;;;;;;5060127;28;20512;-61
2023/04/20 00:54:40;;;;;;;23.67;9.27;;;4.50;88.80;;;;;;5061228;28;20489;-61
2023/04/20 00:57:07;;;;;;;24.60;8.97;;;4.50;89.10;;;;;;5060780;28;20478;-61
2023/04/20 00:59:34;;;;;;;26.53;10.60;;;4.50;89.50;;;;;;5055405;28;20479;-60
2023/04/20 01:02:01;;;;;;;25.23;10.23;;;4.40;90.00;;;;;;5058880;28;20474;-61
2023/04/20 01:04:29;;;;;;;45.73;11.50;;;4.40;90.00;;;;;;5047524;28;21029;-61
2023/04/20 01:06:56;;;;;;;19.87;7.40;;;4.40;89.80;;;;;;5044452;28;20537;-60
2023/04/20 01:09:22;;;;;;;24.43;10.10;;;4.30;89.00;;;;;;5068382;28;20478;-61
2023/04/20 01:11:49;;;;;;;17.73;6.40;;;4.20;89.30;;;;;;5063599;28;20479;-61
2023/04/20 01:14:16;;;;;;;17.00;8.50;;;4.30;89.30;;;;;;5063152;28;20479;-61
2023/04/20 01:16:43;;;;;;;21.80;9.90;;;4.20;89.20;;;;;;5062640;28;20865;-61
2023/04/20 01:19:10;;;;;;;27.33;10.30;;;4.20;90.00;;;;;;5062911;28;20557;-60
2023/04/20 01:21:38;;;;;;;19.30;8.70;;;4.10;90.20;;;;;;5063596;28;20559;-61
2023/04/20 01:24:07;;;;;;;29.20;12.00;;;4.10;90.30;;;;;;5054666;28;21045;-61
2023/04/20 01:26:34;;;;;;;22.00;7.67;;;4.10;90.10;;;;;;5040271;28;20486;-61
2023/04/20 01:29:01;;;;;;;19.73;8.97;;;4.10;90.00;;;;;;5064594;28;20481;-61
2023/04/20 01:31:28;;;;;;;19.73;8.30;;;4.10;90.10;;;;;;5058711;28;21186;-61
2023/04/20 01:33:54;;;;;;;32.70;10.43;;;3.40;90.00;;;;;;5074875;28;20475;-60
2023/04/20 01:36:21;;;;;;;20.03;8.90;;;4.90;90.50;;;;;;5069658;28;20475;-61
2023/04/20 01:38:48;;;;;;;19.13;9.07;;;4.10;90.20;;;;;;5044728;28;20993;-60
2023/04/20 01:41:16;;;;;;;21.63;8.70;;;4.10;90.20;;;;;;5040367;28;20706;-61
2023/04/20 01:43:43;;;;;;;19.03;8.23;;;4.10;90.00;;;;;;5054309;28;20917;-61
2023/04/20 01:46:09;;;;;;;16.00;8.27;;;4.20;90.10;;;;;;5046971;28;20471;-61
2023/04/20 01:48:36;;;;;;;20.40;7.80;;;4.10;90.20;;;;;;5069356;28;20485;-61
2023/04/20 01:51:03;;;;;;;27.37;10.00;;;4.10;90.30;;;;;;5055716;28;20466;-61
2023/04/20 01:53:30;;;;;;;24.33;9.47;;;4.00;90.40;;;;;;5071845;28;20885;-61
2023/04/20 01:55:56;;;;;;;21.50;7.57;;;4.10;90.10;;;;;;5062157;28;20484;-61
2023/04/20 01:58:24;;;;;;;19.30;8.70;;;4.00;90.00;;;;;;5051323;28;21081;-61
2023/04/20 02:00:51;;;;;;;18.30;9.10;;;4.00;90.20;;;;;;5054608;28;20500;-61
2023/04/20 02:03:18;;;;;;;21.43;9.37;;;3.90;90.50;;;;;;5054852;28;20495;-61
2023/04/20 02:05:44;;;;;;;15.43;7.87;;;4.00;90.10;;;;;;5068216;28;21006;-61
2023/04/20 02:08:11;;;;;;;15.97;8.17;;;3.90;90.00;;;;;;5064560;28;20509;-61
2023/04/20 02:10:38;;;;;;;17.17;6.33;;;3.90;90.00;;;;;;5049422;28;20828;-61
2023/04/20 02:13:05;;;;;;;21.33;9.70;;;3.80;90.00;;;;;;5055989;28;20485;-61
2023/04/20 02:15:33;;;;;;;18.53;9.03;;;3.60;90.20;;;;;;5055452;28;20535;-60
2023/04/20 02:17:59;;;;;;;20.80;8.10;;;3.60;90.20;;;;;;5065909;28;20482;-61
2023/04/20 02:20:26;;;;;;;19.30;9.60;;;3.60;90.10;;;;;;5055363;28;20890;-60
2023/04/20 02:22:53;;;;;;;14.87;7.97;;;3.50;90.00;;;;;;5070186;28;20746;-61
2023/04/20 02:25:20;;;;;;;13.43;5.60;;;2.70;89.90;;;;;;5034815;28;20486;-60
2023/04/20 02:27:47;;;;;;;12.87;7.90;;;3.50;90.20;;;;;;5069311;28;20487;-61
2023/04/20 02:30:14;;;;;;;15.90;8.20;;;3.50;90.30;;;;;;5066640;28;20491;-61
2023/04/20 02:32:42;;;;;;;21.37;7.27;;;3.50;90.10;;;;;;5072953;28;20474;-61
2023/04/20 02:35:09;;;;;;;12.20;6.90;;;3.50;90.30;;;;;;5068679;28;20864;-60
2023/04/20 02:37:36;;;;;;;20.73;8.70;;;3.50;90.40;;;;;;5068610;28;20479;-60
2023/04/20 02:40:04;;;;;;;20.93;7.50;;;3.40;90.20;;;;;;5066333;28;20483;-60
2023/04/20 02:42:31;;;;;;;22.53;9.60;;;3.30;90.20;;;;;;5068617;28;20540;-61
2023/04/20 02:44:58;;;;;;;13.90;7.30;;;3.30;90.20;;;;;;5055317;28;20482;-61
2023/04/20 02:47:24;;;;;;;20.80;7.80;;;3.30;90.20;;;;;;5050294;28;20565;-61
2023/04/20 02:49:52;;;;;;;17.77;8.50;;;3.20;90.60;;;;;;5064521;28;20467;-60
2023/04/20 02:52:19;;;;;;;17.90;8.67;;;3.20;90.80;;;;;;5059104;28;22141;-60
2023/04/20 02:54:46;;;;;;;17.00;6.80;;;3.30;90.70;;;;;;5064625;28;20477;-60
2023/04/20 02:57:13;;;;;;;15.57;7.77;;;3.30;90.60;;;;;;5043719;28;20577;-60
2023/04/20 02:59:40;;;;;;;17.00;8.40;;;3.30;90.60;;;;;;5065869;28;20841;-60
2023/04/20 03:02:06;;;;;;;13.37;5.53;;;3.30;90.40;;;;;;5058648;28;20482;-61
2023/04/20 03:04:33;;;;;;;25.50;8.00;;;3.30;90.50;;;;;;5050485;28;20490;-60
2023/04/20 03:07:02;;;;;;;14.40;7.67;;;3.20;90.60;;;;;;5081884;28;20842;-60
2023/04/20 03:09:29;;;;;;;24.17;12.63;;;3.20;90.80;;;;;;5085494;28;21214;-61
2023/04/20 03:11:56;;;;;;;19.63;10.77;;;3.20;90.70;;;;;;5070740;28;21244;-60
2023/04/20 03:14:23;;;;;;;22.43;11.27;;;3.20;90.50;;;;;;5072985;28;20474;-60
2023/04/20 03:16:50;;;;;;;22.60;8.70;;;3.30;90.40;;;;;;5063455;28;20557;-60
2023/04/20 03:19:17;;;;;;;16.20;9.37;;;3.20;90.20;;;;;;5072125;28;20864;-60
2023/04/20 03:21:44;;;;;;;17.80;7.90;;;3.10;90.30;;;;;;5078599;28;20509;-60
2023/04/20 03:24:12;;;;;;;16.13;6.47;;;3.10;90.40;;;;;;5074071;28;21002;-60
2023/04/20 03:26:39;;;;;;;19.77;8.23;;;3.00;90.40;;;;;;5054627;28;20471;-60
2023/04/20 03:29:06;;;;;;;21.23;9.50;;;2.80;90.60;;;;;;5070926;28;20479;-60
2023/04/20 03:31:32;;;;;;;21.90;7.67;;;2.80;90.70;;;;;;5071793;28;20479;-60
2023/04/20 03:33:59;;;;;;;20.57;9.03;;;2.80;90.80;;;;;;5069406;28;20483;-60
2023/04/20 03:36:27;;;;;;;19.43;8.63;;;2.80;90.90;;;;;;5068578;28;20487;-60
2023/04/20 03:38:53;;;;;;;30.40;9.23;;;0.80;90.00;;;;;;5079182;28;20610;-59
2023/04/20 03:41:22;;;;;;;17.40;8.73;;;2.90;90.90;;;;;;5066756;28;20501;-59
2023/04/20 03:43:48;;;;;;;30.83;11.20;;;2.80;91.10;;;;;;5056926;28;20580;-60
2023/04/20 03:46:15;;;;;;;35.90;12.47;;;2.80;91.40;;;;;;5070292;28;20482;-60
2023/04/20 03:48:42;;;;;;;22.53;9.40;;;2.90;91.20;;;;;;5087799;28;20856;-60
2023/04/20 03:51:08;;;;;;;27.10;10.40;;;3.00;91.00;;;;;;5063862;28;20489;-60
2023/04/20 03:53:35;;;;;;;36.03;10.40;;;3.00;90.90;;;;;;5073978;28;20483;-60
2023/04/20 03:56:02;;;;;;;33.83;10.67;;;3.00;90.80;;;;;;5074775;28;20858;-60
2023/04/20 03:58:30;;;;;;;25.90;8.90;;;3.00;90.60;;;;;;5065557;28;20487;-60
2023/04/20 04:01:01;;;;;;;21.83;7.30;;;2.80;90.50;;;;;;5042557;28;20491;-60
2023/04/20 04:03:28;;;;;;;30.47;10.53;;;2.60;90.70;;;;;;5029774;28;20516;-60
2023/04/20 04:05:55;;;;;;;22.90;9.13;;;2.60;91.00;;;;;;5052069;28;20475;-60
2023/04/20 04:08:22;;;;;;;24.10;8.50;;;2.60;90.90;;;;;;5067127;28;20487;-60
2023/04/20 04:10:48;;;;;;;19.53;8.30;;;2.60;90.90;;;;;;5044296;28;20474;-60
2023/04/20 04:13:15;;;;;;;18.27;8.73;;;2.60;90.70;;;;;;5070017;28;20474;-61
2023/04/20 04:15:43;;;;;;;21.70;8.20;;;2.70;90.90;;;;;;5058896;28;20481;-60
2023/04/20 04:18:10;;;;;;;26.50;11.73;;;2.70;90.90;;;;;;5045938;28;20490;-60
2023/04/20 04:20:37;;;;;;;20.30;7.67;;;2.70;91.30;;;;;;5036307;28;20475;-61
2023/04/20 04:23:03;;;;;;;20.80;7.73;;;2.70;91.10;;;;;;5057275;28;20774;-60
2023/04/20 04:25:30;;;;;;;22.70;9.53;;;2.70;90.90;;;;;;5050034;28;20499;-61
2023/04/20 04:27:57;;;;;;;15.93;8.67;;;2.80;91.00;;;;;;5049625;28;20485;-60
2023/04/20 04:30:26;;;;;;;21.80;8.87;;;2.80;91.10;;;;;;5064954;28;20478;-61
2023/04/20 04:32:54;;;;;;;21.07;10.97;;;2.70;91.40;;;;;;5064167;28;20482;-61
2023/04/20 04:35:21;;;;;;;24.43;11.27;;;;;;;;;;5047174;28;20489;-60
2023/04/20 04:37:48;;;;;;;16.60;8.07;;;2.80;91.50;;;;;;5058070;28;20462;-61
2023/04/20 04:40:15;;;;;;;18.27;9.70;;;2.90;91.60;;;;;;5053241;28;20486;-60
2023/04/20 04:42:44;;;;;;;15.20;8.80;;;;;;;;;;5065574;28;20748;-60
2023/04/20 04:45:12;;;;;;;25.20;11.93;;;3.00;91.40;;;;;;5050836;28;20994;-61
2023/04/20 04:47:40;;;;;;;10.80;6.70;;;2.90;91.20;;;;;;5064978;28;20528;-61
2023/04/20 04:50:09;;;;;;;19.20;7.30;;;2.90;91.10;;;;;;5049610;28;20487;-61
2023/04/20 04:52:36;;;;;;;19.53;9.37;;;2.80;91.20;;;;;;5073254;28;20582;-60
2023/04/20 04:55:06;;;;;;;12.97;7.70;;;2.80;91.50;;;;;;5064019;28;20483;-61
2023/04/20 04:57:33;;;;;;;39.43;10.37;;;2.80;91.80;;;;;;5078473;28;20532;-61
2023/04/20 05:00:01;;;;;;;17.83;9.03;;;;;;;;;;5058989;28;20558;-61
2023/04/20 05:02:27;;;;;;;26.83;11.73;;;2.90;92.00;;;;;;5067723;28;20482;-60
2023/04/20 05:04:55;;;;;;;43.13;12.43;;;2.90;92.00;;;;;;5071888;28;20797;-61
2023/04/20 05:07:23;;;;;;;25.70;12.20;;;2.90;92.10;;;;;;5073077;28;21014;-60
2023/04/20 05:09:50;;;;;;;28.83;10.37;;;3.10;91.80;;;;;;5078204;28;20542;-59
2023/04/20 05:12:17;;;;;;;12.80;7.40;;;3.10;91.70;;;;;;5073213;28;20471;-60
2023/04/20 05:14:43;;;;;;;27.77;12.10;;;3.20;91.80;;;;;;5061955;28;20475;-59
2023/04/20 05:17:11;;;;;;;20.57;11.07;;;3.30;91.90;;;;;;5065082;28;20478;-60
2023/04/20 05:19:37;;;;;;;19.60;8.17;;;3.30;92.20;;;;;;5075563;28;20805;-60
2023/04/20 05:22:04;;;;;;;16.17;7.90;;;3.30;92.20;;;;;;5076670;28;20485;-60
2023/04/20 05:24:32;;;;;;;21.93;9.50;;;3.30;92.20;;;;;;5071821;28;20512;-60
2023/04/20 05:26:59;;;;;;;16.33;7.80;;;3.20;92.40;;;;;;5059628;28;20531;-60
2023/04/20 05:29:26;;;;;;;20.03;8.63;;;3.20;92.40;;;;;;5069482;28;20486;-60
2023/04/20 05:31:53;;;;;;;20.23;10.03;;;3.30;92.50;;;;;;5078849;28;20485;-60
2023/04/20 05:34:19;;;;;;;20.53;8.07;;;3.40;92.50;;;;;;5064264;28;20482;-61
2023/04/20 05:36:46;;;;;;;18.83;10.07;;;3.40;92.60;;;;;;5070397;28;21021;-60
2023/04/20 05:39:13;;;;;;;15.93;8.33;;;3.50;92.60;;;;;;5067868;28;20482;-61
2023/04/20 05:41:41;;;;;;;22.47;8.47;;;3.70;92.60;;;;;;5073472;28;20490;-60
2023/04/20 05:44:08;;;;;;;21.27;10.03;;;3.70;92.50;;;;;;5066094;28;21291;-60
2023/04/20 05:46:35;;;;;;;22.10;9.17;;;3.90;92.50;;;;;;5068470;28;21023;-60
2023/04/20 05:49:01;;;;;;;15.17;7.20;;;3.90;92.60;;;;;;5069288;28;20510;-59
2023/04/20 05:51:32;;;;;;;24.13;10.87;;;6.30;93.80;;;;;;5069065;28;20474;-60
2023/04/20 05:53:59;;;;;;;17.43;8.67;;;4.10;92.90;;;;;;5077669;28;20474;-60
2023/04/20 05:56:25;;;;;;;26.40;9.70;;;4.20;92.80;;;;;;5067933;28;20475;-60
2023/04/20 05:58:54;;;;;;;20.70;8.97;;;4.30;92.90;;;;;;5095180;28;20481;-59
2023/04/20 06:01:20;;;;;;;26.33;9.67;;;4.50;92.80;;;;;;5095404;28;20485;-60
2023/04/20 06:03:48;;;;;;;21.87;8.60;;;;;;;;;;5089946;28;20477;-59
2023/04/20 06:06:15;;;;;;;19.80;10.20;;;5.00;92.60;;;;;;5092384;28;20990;-60
2023/04/20 06:08:42;;;;;;;24.77;10.47;;;5.40;92.70;;;;;;5093498;28;20567;-59
2023/04/20 06:11:08;;;;;;;29.00;11.60;;;5.80;92.20;;;;;;5089377;28;20514;-59
2023/04/20 06:13:35;;;;;;;27.10;11.10;;;6.30;91.80;;;;;;5076117;28;20487;-61
2023/04/20 06:16:08;;;;;;;28.40;11.97;;;6.60;91.40;;;;;;5065171;28;20514;-61
2023/04/20 06:18:34;;;;;;;25.43;10.30;;;6.90;90.90;;;;;;5094612;28;20684;-60
2023/04/20 06:21:01;;;;;;;21.03;10.60;;;7.30;91.00;;;;;;5086925;28;20484;-60
2023/04/20 06:23:28;;;;;;;24.57;10.20;;;7.60;91.10;;;;;;5099175;28;21046;-60
2023/04/20 06:25:55;;;;;;;26.67;9.97;;;8.10;90.80;;;;;;5060358;28;20475;-60
2023/04/20 06:28:21;;;;;;;32.50;12.57;;;8.60;89.70;;;;;;5080775;28;20843;-61
2023/04/20 06:30:48;;;;;;;19.90;8.93;;;9.00;88.00;;;;;;5074042;28;20466;-60
2023/04/20 06:33:16;;;;;;;27.37;10.83;;;9.40;89.60;;;;;;5083252;28;20828;-61
2023/04/20 06:35:43;;;;;;;33.50;10.77;;;9.60;87.20;;;;;;5081124;28;21205;-61
2023/04/20 06:38:10;;;;;;;37.43;14.53;;;8.10;84.30;;;;;;5088985;28;20824;-60
2023/04/20 06:40:36;;;;;;;30.87;9.50;;;10.00;86.10;;;;;;5090473;28;20966;-61
2023/04/20 06:43:03;;;;;;;26.60;10.57;;;9.90;85.40;;;;;;5089581;28;20481;-61
2023/04/20 06:45:30;;;;;;;30.83;11.00;;;9.70;84.80;;;;;;5082125;28;20997;-60
2023/04/20 06:47:57;;;;;;;29.00;11.17;;;9.40;85.30;;;;;;5074994;28;20967;-61
2023/04/20 06:50:25;;;;;;;18.90;7.77;;;9.20;84.50;;;;;;5076244;28;20486;-60
2023/04/20 06:52:52;;;;;;;28.20;10.67;;;8.90;84.40;;;;;;5074713;28;20496;-60
2023/04/20 06:55:18;;;;;;;26.90;10.60;;;8.70;86.60;;;;;;5078037;28;20501;-60
2023/04/20 06:57:45;;;;;;;36.07;11.90;;;8.50;86.60;;;;;;5078238;28;20914;-61
2023/04/20 07:00:13;;;;;;;24.40;11.53;;;9.40;87.90;;;;;;5076407;28;20482;-60
2023/04/20 07:02:44;;;;;;;30.40;10.10;;;8.30;87.10;;;;;;5088753;28;20471;-60
2023/04/20 07:05:11;;;;;;;18.30;10.00;;;8.20;87.50;;;;;;5086984;28;20693;-60
2023/04/20 07:07:39;;;;;;;40.00;12.07;;;9.60;89.00;;;;;;5075795;28;20816;-60
2023/04/20 07:10:07;;;;;;;22.30;8.07;;;8.20;88.40;;;;;;5073710;28;20490;-60
2023/04/20 07:12:35;;;;;;;25.57;9.10;;;8.10;87.90;;;;;;5071760;28;20517;-59
2023/04/20 07:15:02;;;;;;;24.70;10.63;;;8.10;87.80;;;;;;5068896;28;20583;-60
2023/04/20 07:17:29;;;;;;;19.47;9.97;;;8.10;89.20;;;;;;5080310;28;20578;-59
2023/04/20 07:19:56;;;;;;;21.67;10.67;;;8.20;89.20;;;;;;5096426;28;20484;-60
2023/04/20 07:22:23;;;;;;;16.87;7.53;;;8.30;90.00;;;;;;5097420;28;20571;-60
2023/04/20 07:24:51;;;;;;;19.63;9.93;;;8.30;89.00;;;;;;5077388;28;20493;-60
2023/04/20 07:27:18;;;;;;;36.30;8.17;;;8.40;89.90;;;;;;5078481;28;20493;-60
2023/04/20 07:29:45;;;;;;;21.00;10.63;;;8.50;88.70;;;;;;5096234;28;20484;-60
2023/04/20 07:32:11;;;;;;;18.33;8.27;;;8.50;88.10;;;;;;5063887;28;20476;-59
2023/04/20 07:34:38;;;;;;;15.70;8.47;;;8.50;88.90;;;;;;5099122;28;20473;-60
2023/04/20 07:37:05;;;;;;;17.27;9.20;;;8.60;88.50;;;;;;5093947;28;20490;-59
2023/04/20 07:39:31;;;;;;;15.40;10.00;;;8.70;89.90;;;;;;5091590;28;20489;-60
2023/04/20 07:42:02;;;;;;;18.30;11.17;;;8.90;89.70;;;;;;5085966;28;21242;-59
2023/04/20 07:44:29;;;;;;;26.13;11.70;;;9.10;88.70;;;;;;5076611;28;20970;-59
2023/04/20 07:46:56;;;;;;;16.07;10.67;;;9.30;89.20;;;;;;5061307;28;20482;-59
2023/04/20 07:49:23;;;;;;;18.50;9.77;;;9.60;88.70;;;;;;5070701;28;20517;-60
2023/04/20 07:51:49;;;;;;;20.90;11.07;;;10.10;89.30;;;;;;5086447;28;20481;-61
2023/04/20 07:54:16;;;;;;;16.27;8.73;;;10.20;86.20;;;;;;5093422;28;20474;-61
2023/04/20 07:56:43;;;;;;;17.97;9.60;;;10.60;87.30;;;;;;5077100;28;20970;-61
2023/04/20 07:59:11;;;;;;;29.73;9.20;;;11.00;86.30;;;;;;5073118;28;21013;-61
2023/04/20 08:01:37;;;;;;;21.67;10.90;;;11.40;86.40;;;;;;5080827;28;20473;-61
2023/04/20 08:04:04;;;;;;;12.63;9.00;;;11.70;86.40;;;;;;5080892;28;20842;-60
2023/04/20 08:06:31;;;;;;;14.40;8.97;;;12.00;85.20;;;;;;5079414;28;20483;-61
2023/04/20 08:08:58;;;;;;;14.87;9.40;;;12.10;83.90;;;;;;5076062;28;20514;-61
2023/04/20 08:11:25;;;;;;;20.97;11.00;;;12.30;85.10;;;;;;5080403;28;20489;-61
2023/04/20 08:13:52;;;;;;;12.97;9.33;;;12.50;85.40;;;;;;5090477;28;20470;-61
2023/04/20 08:16:20;;;;;;;10.07;5.87;;;12.50;83.10;;;;;;5078436;28;20519;-61
2023/04/20 08:18:47;;;;;;;14.27;9.37;;;12.50;82.00;;;;;;5079792;28;20478;-61
2023/04/20 08:21:14;;;;;;;11.23;9.17;;;12.70;83.90;;;;;;5083253;28;21012;-61
2023/04/20 08:23:40;;;;;;;20.87;10.30;;;12.70;81.40;;;;;;5092766;28;20966;-61
2023/04/20 08:26:07;;;;;;;13.30;6.70;;;12.90;81.50;;;;;;5064782;28;20477;-61
2023/04/20 08:28:34;;;;;;;16.73;8.50;;;13.20;84.40;;;;;;5079950;28;20482;-61
2023/04/20 08:31:01;;;;;;;15.43;10.40;;;13.30;82.80;;;;;;5073633;28;20482;-60
2023/04/20 08:33:29;;;;;;;18.90;10.97;;;13.60;81.80;;;;;;5083086;28;20474;-60
2023/04/20 08:35:56;;;;;;;12.63;7.97;;;13.70;80.00;;;;;;5084705;28;20577;-60
2023/04/20 08:38:23;;;;;;;15.57;9.10;;;13.80;81.80;;;;;;5061312;28;20501;-60
2023/04/20 08:40:50;;;;;;;18.83;9.20;;;13.90;81.20;;;;;;5070793;28;20540;-61
2023/04/20 08:43:17;;;;;;;25.40;10.00;;;13.90;80.70;;;;;;5069934;28;20513;-61
2023/04/20 08:45:47;;;;;;;14.73;9.37;;;13.60;78.80;;;;;;5088646;28;20477;-61
2023/04/20 08:48:17;;;;;;;19.37;9.47;;;13.50;78.30;;;;;;5076180;28;20484;-60
2023/04/20 08:50:45;;;;;;;15.83;8.17;;;13.20;78.90;;;;;;5075227;28;20494;-60
2023/04/20 08:53:13;;;;;;;14.20;8.77;;;13.00;77.90;;;;;;5075282;28;20493;-61
2023/04/20 08:55:39;;;;;;;19.23;10.90;;;13.00;80.10;;;;;;5081100;28;20491;-61
2023/04/20 08:58:06;;;;;;;23.03;9.13;;;12.80;80.90;;;;;;5072938;28;20479;-60
2023/04/20 09:00:33;;;;;;;18.57;9.23;;;13.10;81.60;;;;;;5088996;28;20983;-60
2023/04/20 09:03:00;;;;;;;23.83;12.03;;;13.10;82.20;;;;;;5075491;28;20553;-60
2023/04/20 09:05:29;;;;;;;13.47;8.23;;;13.40;82.50;;;;;;5089860;28;21256;-60
2023/04/20 09:07:59;;;;;;;18.13;10.50;;;13.60;83.40;;;;;;5096278;28;20985;-60
2023/04/20 09:10:27;;;;;;;19.47;9.97;;;13.70;81.40;;;;;;5078182;28;20485;-61
2023/04/20 09:12:53;;;;;;;26.03;11.50;;;13.80;80.80;;;;;;5074018;28;20475;-60
2023/04/20 09:15:28;;;;;;;15.17;9.50;;;13.90;81.90;;;;;;5086772;28;20489;-60
2023/04/20 09:17:55;;;;;;;32.53;11.73;;;14.20;82.30;;;;;;5091202;28;20474;-60
2023/04/20 09:20:29;;;;;;;12.90;9.30;;;14.40;81.40;;;;;;5071706;28;20479;-61
2023/04/20 09:22:57;;;;;;;15.40;10.77;;;14.50;80.50;;;;;;5080392;28;20496;-61
2023/04/20 09:25:26;;;;;;;15.00;8.37;;;14.60;80.50;;;;;;5083959;28;20494;-62
2023/04/20 09:27:57;;;;;;;16.50;11.93;;;14.90;80.60;;;;;;5076201;28;20942;-62
2023/04/20 09:30:24;;;;;;;21.20;14.63;;;14.90;79.10;;;;;;5072257;28;20826;-62
2023/04/20 09:33:01;;;;;;;23.57;11.17;;;15.20;79.90;;;;;;5071300;28;20479;-62
2023/04/20 09:35:28;;;;;;;20.97;10.93;;;15.40;79.70;;;;;;5071727;28;20477;-62
2023/04/20 09:37:55;;;;;;;19.50;10.20;;;15.70;77.80;;;;;;5071380;28;20990;-62
2023/04/20 09:40:25;;;;;;;18.60;11.17;;;15.80;80.30;;;;;;5080798;28;21661;-62
2023/04/20 09:42:53;;;;;;;17.30;9.97;;;15.90;78.00;;;;;;5073549;28;21198;-62
2023/04/20 09:45:20;;;;;;;14.03;9.10;;;16.10;77.50;;;;;;5085118;28;20961;-62
2023/04/20 09:47:48;;;;;;;18.83;11.40;;;16.20;77.30;;;;;;5090260;28;20469;-62
2023/04/20 09:50:16;;;;;;;12.30;8.30;;;16.10;77.90;;;;;;5076984;28;20531;-61
2023/04/20 09:52:47;;;;;;;22.50;10.47;;;16.10;77.10;;;;;;5082063;28;20727;-63
2023/04/20 09:55:14;;;;;;;12.70;9.47;;;16.20;78.50;;;;;;5074181;28;20493;-62
2023/04/20 09:57:43;;;;;;;14.17;10.90;;;16.00;76.10;;;;;;5085000;28;20493;-62
2023/04/20 10:00:11;;;;;;;12.93;9.43;;;15.70;74.90;;;;;;5095752;28;20482;-62
2023/04/20 10:02:39;;;;;;;12.43;9.40;;;15.30;75.50;;;;;;5093238;28;20505;-62
2023/04/20 10:05:07;;;;;;;15.43;8.80;;;15.00;75.60;;;;;;5096240;28;20589;-61
2023/04/20 10:07:34;;;;;;;20.93;9.93;;;14.70;77.10;;;;;;5095935;28;20478;-61
2023/04/20 10:10:06;;;;;;;13.87;10.27;;;14.40;77.40;;;;;;5090299;28;20542;-61
2023/04/20 10:12:35;;;;;;;24.77;10.77;;;14.50;79.50;;;;;;5064034;28;20467;-61
2023/04/20 10:15:04;;;;;;;12.80;9.70;;;14.50;78.90;;;;;;5073361;28;20499;-60
2023/04/20 10:17:31;;;;;;;12.70;10.17;;;14.40;78.90;;;;;;5076596;28;20478;-61
2023/04/20 10:19:58;;;;;;;15.87;10.00;;;14.60;79.20;;;;;;5071113;28;20478;-61
2023/04/20 10:22:31;;;;;;;13.53;9.50;;;14.70;80.50;;;;;;5075635;28;21081;-61
2023/04/20 10:24:58;;;;;;;11.83;8.13;;;14.90;79.20;;;;;;5061809;28;20529;-61
2023/04/20 10:27:25;;;;;;;19.63;10.70;;;14.90;79.00;;;;;;5082461;28;21024;-61
2023/04/20 10:29:52;;;;;;;13.83;9.70;;;14.80;77.50;;;;;;5078853;28;20489;-63
2023/04/20 10:32:24;;;;;;;17.13;8.80;;;14.80;78.30;;;;;;5079993;28;20485;-61
2023/04/20 10:35:02;;;;;;;15.73;10.37;;;14.80;79.00;;;;;;5069627;28;20932;-61
2023/04/20 10:37:29;;;;;;;15.37;10.73;;;14.40;77.80;;;;;;5066301;28;20515;-61
2023/04/20 10:39:56;;;;;;;15.87;10.43;;;14.30;78.70;;;;;;5078336;28;21076;-61
2023/04/20 10:42:22;;;;;;;15.80;10.97;;;14.20;78.40;;;;;;5086082;28;21013;-62
2023/04/20 10:44:50;;;;;;;20.97;12.23;;;14.10;78.90;;;;;;5070320;28;20467;-62
2023/04/20 10:47:17;;;;;;;26.03;10.73;;;14.20;81.10;;;;;;5076068;28;20494;-62
2023/04/20 10:49:45;;;;;;;24.83;11.87;;;14.50;81.00;;;;;;5078489;28;20474;-62
2023/04/20 10:52:11;;;;;;;15.83;10.60;;;14.70;81.10;;;;;;5049182;28;20470;-62
2023/04/20 10:54:39;;;;;;;18.10;10.90;;;14.70;81.90;;;;;;5072546;28;20503;-62
2023/04/20 10:57:07;;;;;;;15.33;11.10;;;14.50;79.00;;;;;;5076082;28;20506;-62
2023/04/20 10:59:36;;;;;;;12.23;9.37;;;14.20;79.00;;;;;;5076613;28;20482;-61
2023/04/20 11:02:06;;;;;;;17.10;11.47;;;14.00;79.60;;;;;;5057661;28;20510;-62
2023/04/20 11:04:34;;;;;;;19.83;11.20;;;13.90;79.70;;;;;;5073081;28;21208;-62
2023/04/20 11:07:07;;;;;;;19.73;12.13;;;13.90;81.00;;;;;;5096270;28;20517;-62
2023/04/20 11:09:36;;;;;;;23.83;12.07;;;13.80;81.10;;;;;;5074640;28;20487;-62
2023/04/20 11:12:05;;;;;;;16.30;11.00;;;13.80;79.70;;;;;;5079541;28;21009;-62
2023/04/20 11:14:33;;;;;;;19.50;10.23;;;13.70;80.70;;;;;;5080978;28;20517;-62
2023/04/20 11:17:00;;;;;;;20.40;13.13;;;13.60;79.30;;;;;;5088449;28;20503;-62
2023/04/20 11:19:28;;;;;;;22.10;13.60;;;13.60;81.20;;;;;;5082000;28;20873;-62
2023/04/20 11:21:56;;;;;;;22.33;11.03;;;13.60;80.90;;;;;;5076239;28;20485;-62
2023/04/20 11:24:26;;;;;;;22.13;11.30;;;13.40;80.90;;;;;;5079419;28;20490;-62
2023/04/20 11:26:53;;;;;;;23.67;12.83;;;13.30;80.50;;;;;;5080449;28;20479;-62
2023/04/20 11:29:31;;;;;;;15.97;9.87;;;13.20;80.90;;;;;;5081648;28;21022;-62
2023/04/20 11:31:59;;;;;;;17.93;12.40;;;13.10;80.90;;;;;;5067246;28;20485;-62
2023/04/20 11:34:26;;;;;;;18.60;11.30;;;13.00;81.60;;;;;;5068150;28;20882;-62
2023/04/20 11:36:55;;;;;;;21.13;12.30;;;13.00;81.10;;;;;;5078841;28;20482;-61
2023/04/20 11:39:28;;;;;;;19.37;12.40;;;13.00;80.60;;;;;;5078932;28;20484;-61
2023/04/20 11:41:56;;;;;;;17.87;9.37;;;13.00;82.10;;;;;;5072585;28;20516;-61
2023/04/20 11:44:24;;;;;;;18.90;13.00;;;13.00;81.00;;;;;;5080205;28;20501;-61
2023/04/20 11:46:53;;;;;;;20.50;11.07;;;13.00;81.10;;;;;;5095198;28;20470;-61
2023/04/20 11:49:20;;;;;;;20.87;10.87;;;13.10;81.20;;;;;;5092561;28;20473;-61
2023/04/20 11:51:47;;;;;;;13.47;12.03;;;13.20;80.00;;;;;;5096347;28;20556;-61
2023/04/20 11:54:14;;;;;;;23.03;11.90;;;13.30;80.70;;;;;;5096070;28;20477;-61
2023/04/20 11:56:43;;;;;;;15.00;10.30;;;13.40;81.00;;;;;;5080982;28;20596;-61
2023/04/20 11:59:10;;;;;;;20.00;11.73;;;13.40;80.60;;;;;;5077962;28;20958;-61
2023/04/20 12:01:37;;;;;;;13.70;11.20;;;13.40;82.10;;;;;;5076645;28;20483;-61
2023/04/20 12:04:04;;;;;;;12.43;9.70;;;13.40;80.70;;;;;;5084482;28;20489;-61
2023/04/20 12:06:31;;;;;;;12.80;9.87;;;13.40;81.60;;;;;;5089505;28;20493;-61
2023/04/20 12:08:58;;;;;;;15.00;11.77;;;13.50;81.60;;;;;;5100803;28;20560;-61
2023/04/20 12:11:25;;;;;;;12.17;9.23;;;13.80;79.90;;;;;;5096550;28;20482;-61
2023/04/20 12:13:53;;;;;;;14.30;10.43;;;13.90;79.40;;;;;;5076458;28;20478;-61
2023/04/20 12:16:20;;;;;;;13.73;11.43;;;14.00;79.00;;;;;;5084157;28;20986;-61
2023/04/20 12:18:47;;;;;;;20.57;12.50;;;14.00;80.00;;;;;;5069380;28;20471;-61
2023/04/20 12:21:14;;;;;;;18.20;13.33;;;14.10;78.00;;;;;;5093875;28;20562;-62
2023/04/20 12:23:42;;;;;;;13.10;9.33;;;14.10;77.50;;;;;;5095280;28;20469;-62
2023/04/20 12:26:09;;;;;;;19.97;11.07;;;14.00;78.00;;;;;;5067809;28;20485;-61
2023/04/20 12:28:36;;;;;;;20.77;12.90;;;14.10;80.10;;;;;;5070484;28;20829;-61
2023/04/20 12:31:04;;;;;;;14.43;10.53;;;14.40;81.20;;;;;;5092744;28;21071;-62
2023/04/20 12:33:31;;;;;;;17.20;11.17;;;14.40;81.00;;;;;;5081552;28;20947;-62
2023/04/20 12:35:58;;;;;;;23.40;12.37;;;14.50;81.20;;;;;;5092723;28;20831;-62
2023/04/20 12:38:24;;;;;;;20.27;11.30;;;14.50;79.60;;;;;;5076849;28;20485;-62
2023/04/20 12:40:51;;;;;;;10.17;8.10;;;14.40;78.50;;;;;;5095481;28;20477;-62